• Join FlightAware (Why Join?)
  • Login
  • US Flag 
05:47AM EDT


 

Airport Tracker/Info


-or-


 

Live Flight TrackerFlight Track Log ✈ N70AG ✈ 07-Jul-2013 ✈ KSAN - KVNY

Flight Track Log - Related Links

Times and Time Zones

All times are in EDT time to prevent confusion due to time zone crossing. See the N70AG flight status page for this flight to view local times or setup timezone preferences in your user account.

Time Position Orientation Groundspeed Altitude Reporting Facility
EDT Latitude Longitude Course Direction KTS MPH feet Rate Location/Type
05:39PM 32.8000 -117.3167 312° West 274 315 7,100  Level Southern California TRACON
05:40PM 32.8500 -117.4000 306° West 302 348 10,000 1,440 Climbing Southern California TRACON
05:41PM 32.9000 -117.4833 306° West 301 346 10,000  Level Southern California TRACON
05:42PM 32.9661 -117.5367 326° Northwest 316 364 10,000  Level Los Angeles Center
05:43PM 33.0770 -117.4880 324° Northwest  Level FlightAware Approximate
05:43PM 33.0339 -117.6108 317° Northwest 330 380 10,000  Level Los Angeles Center
05:44PM 33.0906 -117.6942 309° West 326 375 10,000 -120 Level Los Angeles Center
05:45PM 33.1500 -117.7889 307° West 302 348 9,800 -960 Descending Los Angeles Center
05:46PM 33.2142 -117.8481 322° Northwest 294 338 8,100 -1,620 Descending Los Angeles Center
05:47PM 33.2889 -117.8750 343° North 282 325 6,500 -1,020 Descending Los Angeles Center
05:48PM 33.3617 -117.9008 343° North 276 318 6,000 -300 Descending Los Angeles Center
05:49PM 33.4339 -117.9269 343° North 274 315 6,000  Level Los Angeles Center
05:50PM 33.4867 -117.9908 315° West 273 314 6,000  Level Los Angeles Center
05:51PM 33.5550 -118.0625 319° Northwest 272 313 6,000  Level Los Angeles Center
05:52PM 33.6144 -118.1203 321° Northwest 273 314 6,000  Level Los Angeles Center
05:53PM 33.6728 -118.1769 321° Northwest 272 313 6,000  Level Los Angeles Center
05:54PM 33.7306 -118.2336 321° Northwest 271 312 6,000  Level Los Angeles Center
05:55PM 33.7986 -118.2997 321° Northwest 271 312 6,000 -420 Level Los Angeles Center
05:56PM 33.8636 -118.3425 331° Northwest 271 312 5,200 -540 Descending Los Angeles Center
05:57PM 33.9286 -118.3847 332° Northwest 268 308 5,000 -120 Descending Los Angeles Center
05:58PM 33.9911 -118.4322 328° Northwest 266 306 5,000  Level Los Angeles Center
05:59PM 34.0569 -118.4967 321° Northwest 271 312 5,000  Level Los Angeles Center
06:00PM 34.1219 -118.5281 338° Northwest 237 273 5,000 -540 Level Los Angeles Center
06:01PM 34.1817 -118.5417 349° North 222 255 4,000 -1,200 Descending Los Angeles Center
06:02PM 34.2350 -118.5367 North 198 228 2,600 -1,080 Descending Los Angeles Center
06:03PM 34.2561 -118.4983 56° Northeast 183 211 1,800 -900 Descending Los Angeles Center
06:04PM 34.2158 -118.4919 173° South 139 160 800 -1,020 Descending Los Angeles Center
06:06PM 34.2098 -118.4900 129° Southeast  Level Estimated